Matrimony, North Carolina
Current Conditions -  °F | °C
As of 3:55 AM on Wednesday 26 Nov 2014 (Local Time) from KSIF Reporting Station
Moderate Rain Moderate Rain  
Wind Chill: 44°   Ceiling: 3900
Heat Index: 44°   Visibility: 10mi
Dew Point: 42°   Wind: 0mph
Humidity: 95%   Direction: NA
Pressure: 30"   Gusts: NA
Location:  36.4831°N, 79.9235°W
Report Text: KSIF 260855Z AUTO 00000KT 10SM RA BKN039 OVC046 07/06 A3000 RMK AO2 60001 T00650057
Loading
Personal Weather Stations






























Interactive Weather Map New forecast layout! Learn more

10-Day Weather Forecast

Advertisements
Track Severe Weather on mobile